createdAt,value
2023-04-29T00:00:52.320Z,391.40
2023-04-29T00:03:20.159Z,408.25
2023-04-29T00:05:48.126Z,421.73
2023-04-29T00:08:16.100Z,419.17
2023-04-29T00:10:45.042Z,384.27
2023-04-29T00:13:13.443Z,415.27
2023-04-29T00:15:41.965Z,398.70
2023-04-29T00:18:10.345Z,413.88
2023-04-29T00:20:57.798Z,402.33
2023-04-29T00:23:25.524Z,395.95
2023-04-29T00:25:54.489Z,377.23
2023-04-29T00:28:22.099Z,394.73
2023-04-29T00:30:50.493Z,410.63
2023-04-29T00:33:18.433Z,411.42
2023-04-29T00:35:46.999Z,405.40
2023-04-29T00:38:14.650Z,402.15
2023-04-29T00:40:43.568Z,400.77
2023-04-29T00:43:12.668Z,430.85
2023-04-29T00:45:40.375Z,416.55
2023-04-29T00:48:08.753Z,407.35
2023-04-29T00:50:37.776Z,408.15
2023-04-29T00:53:05.926Z,417.90
2023-04-29T00:55:34.843Z,398.33
2023-04-29T00:58:02.761Z,448.20
2023-04-29T01:00:32.297Z,404.30
2023-04-29T01:03:00.541Z,428.98
2023-04-29T01:05:28.395Z,410.15
2023-04-29T01:08:12.660Z,409.25
2023-04-29T01:10:46.158Z,394.50
2023-04-29T01:13:19.469Z,419.95
2023-04-29T01:15:58.861Z,426.50
2023-04-29T01:18:30.495Z,412.42
2023-04-29T01:20:59.654Z,405.30
2023-04-29T01:23:29.198Z,400.45
2023-04-29T01:25:58.194Z,442.52
2023-04-29T01:28:52.034Z,397.75
2023-04-29T01:31:26.012Z,391.20
2023-04-29T01:34:07.196Z,410.77
2023-04-29T01:36:46.224Z,400.63
2023-04-29T01:39:22.639Z,389.88
2023-04-29T01:42:03.363Z,414.58
2023-04-29T01:44:33.884Z,396.48
2023-04-29T01:49:40.494Z,405.67
2023-04-29T01:52:08.283Z,390.70
2023-04-29T01:54:39.384Z,386.65
2023-04-29T01:57:07.241Z,388.35
2023-04-29T01:59:43.764Z,404.20
2023-04-29T02:02:21.234Z,387.70
2023-04-29T02:04:57.640Z,364.85
2023-04-29T02:07:25.486Z,385.27
2023-04-29T02:09:54.752Z,420.00
2023-04-29T02:12:23.870Z,404.58
2023-04-29T02:14:53.271Z,402.02
2023-04-29T02:17:21.386Z,392.17
2023-04-29T02:19:49.051Z,400.42
2023-04-29T02:22:16.957Z,382.65
2023-04-29T02:24:44.723Z,385.83
2023-04-29T02:27:13.643Z,392.27
2023-04-29T02:29:41.334Z,409.33
2023-04-29T02:32:10.669Z,378.05
2023-04-29T02:34:39.880Z,408.05
2023-04-29T02:37:07.522Z,392.75
2023-04-29T02:39:35.156Z,389.05
2023-04-29T02:42:02.941Z,387.75
2023-04-29T02:44:31.968Z,397.40
2023-04-29T02:47:00.150Z,397.75
2023-04-29T02:49:27.899Z,388.00
2023-04-29T02:51:55.562Z,380.70
2023-04-29T02:54:23.695Z,394.00
2023-04-29T02:56:51.297Z,400.75
2023-04-29T02:59:19.039Z,381.13
2023-04-29T03:01:48.523Z,406.38
2023-04-29T03:04:16.627Z,402.08
2023-04-29T03:06:44.562Z,392.85
2023-04-29T03:09:14.391Z,384.23
2023-04-29T03:11:45.059Z,390.30
2023-04-29T03:14:12.886Z,387.75
2023-04-29T03:16:41.344Z,401.17
2023-04-29T03:19:10.463Z,379.02
2023-04-29T03:21:38.283Z,397.52
2023-04-29T03:24:06.718Z,394.80
2023-04-29T03:26:35.763Z,381.25
2023-04-29T03:29:05.006Z,365.88
2023-04-29T03:31:34.745Z,407.77
2023-04-29T03:34:02.432Z,389.50
2023-04-29T03:36:34.528Z,378.65
2023-04-29T03:39:07.495Z,387.05
2023-04-29T03:41:35.168Z,375.55
2023-04-29T03:44:03.054Z,375.92
2023-04-29T03:46:30.887Z,380.23
2023-04-29T03:48:58.821Z,383.10
2023-04-29T03:51:26.934Z,369.73
2023-04-29T03:54:03.312Z,361.90
2023-04-29T03:56:30.967Z,386.52
2023-04-29T03:58:58.613Z,399.13
2023-04-29T04:01:27.789Z,373.80
2023-04-29T04:03:55.641Z,385.70
2023-04-29T04:06:23.437Z,371.55
2023-04-29T04:08:52.614Z,372.00
2023-04-29T04:11:27.205Z,382.58
2023-04-29T04:14:02.034Z,365.23
2023-04-29T04:16:30.860Z,353.05
2023-04-29T04:18:59.146Z,355.48
2023-04-29T04:21:27.429Z,382.40
2023-04-29T04:24:01.523Z,370.00
2023-04-29T04:26:32.467Z,383.05
2023-04-29T04:29:08.358Z,371.38
2023-04-29T04:31:55.653Z,373.88
2023-04-29T04:34:24.032Z,389.35
2023-04-29T04:36:53.409Z,373.67
2023-04-29T04:39:22.993Z,392.60
2023-04-29T04:41:53.040Z,396.80
2023-04-29T04:44:21.622Z,384.70
2023-04-29T04:46:58.437Z,373.73
2023-04-29T04:49:40.392Z,385.92
2023-04-29T04:52:08.128Z,398.17
2023-04-29T04:54:38.260Z,391.33
2023-04-29T04:57:15.227Z,373.35
2023-04-29T04:59:43.287Z,365.70
2023-04-29T05:02:11.058Z,393.05
2023-04-29T05:04:38.860Z,380.75
2023-04-29T05:07:06.480Z,374.33
2023-04-29T05:09:49.880Z,391.77
2023-04-29T05:12:18.890Z,375.15
2023-04-29T05:14:46.507Z,368.05
2023-04-29T05:17:14.760Z,393.80
2023-04-29T05:19:43.121Z,399.17
2023-04-29T05:22:13.226Z,387.15
2023-04-29T05:24:42.014Z,385.95
2023-04-29T05:27:10.086Z,371.13
2023-04-29T05:29:39.095Z,405.77
2023-04-29T05:32:07.378Z,390.13
2023-04-29T05:34:35.127Z,373.15
2023-04-29T05:37:03.146Z,394.13
2023-04-29T05:39:32.646Z,397.63
2023-04-29T05:42:09.554Z,388.55
2023-04-29T05:44:43.097Z,365.83
2023-04-29T05:47:10.685Z,386.83
2023-04-29T05:49:40.190Z,397.73
2023-04-29T05:52:08.279Z,384.25
2023-04-29T05:54:41.500Z,388.77
2023-04-29T05:57:09.154Z,392.27
2023-04-29T05:59:36.817Z,366.88
2023-04-29T06:02:07.675Z,384.23
2023-04-29T06:04:37.742Z,375.33
2023-04-29T06:07:15.346Z,367.38
2023-04-29T06:09:52.016Z,379.38
2023-04-29T06:12:19.826Z,374.80
2023-04-29T06:14:48.342Z,370.27
2023-04-29T06:17:17.445Z,355.92
2023-04-29T06:19:45.212Z,390.55
2023-04-29T06:22:13.059Z,380.98
2023-04-29T06:24:45.679Z,380.95
2023-04-29T06:27:16.337Z,366.38
2023-04-29T06:29:43.987Z,371.73
2023-04-29T06:32:13.951Z,364.85
2023-04-29T06:34:43.473Z,375.35
2023-04-29T06:37:37.073Z,359.30
2023-04-29T06:40:25.905Z,369.27
2023-04-29T06:43:22.584Z,333.70
2023-04-29T06:46:17.128Z,370.27
2023-04-29T06:48:52.233Z,370.70
2023-04-29T06:51:21.465Z,362.85
2023-04-29T06:53:49.363Z,365.83
2023-04-29T06:56:17.332Z,365.33
2023-04-29T06:58:44.990Z,369.83
2023-04-29T07:01:12.681Z,380.15
2023-04-29T07:03:40.522Z,374.45
2023-04-29T07:06:08.343Z,347.60
2023-04-29T07:08:37.818Z,374.60
2023-04-29T07:11:06.242Z,346.52
2023-04-29T07:13:33.919Z,355.77
2023-04-29T07:16:01.552Z,341.13
2023-04-29T07:18:29.103Z,356.88
2023-04-29T07:21:02.066Z,357.27
2023-04-29T07:23:30.012Z,357.17
2023-04-29T07:25:58.948Z,358.55
2023-04-29T07:28:26.515Z,347.52
2023-04-29T07:30:54.239Z,352.77
2023-04-29T07:33:22.172Z,375.35
2023-04-29T07:35:50.221Z,352.85
2023-04-29T07:38:17.824Z,340.50
2023-04-29T07:40:45.903Z,341.27
2023-04-29T07:43:15.647Z,359.23
2023-04-29T07:45:43.308Z,374.42
2023-04-29T07:48:11.353Z,360.23
2023-04-29T07:50:38.972Z,354.63
2023-04-29T07:53:07.326Z,342.80
2023-04-29T07:55:34.975Z,345.73
2023-04-29T07:58:02.663Z,340.30
2023-04-29T08:00:31.914Z,324.65
2023-04-29T08:02:59.826Z,332.63
2023-04-29T08:05:28.025Z,323.05
2023-04-29T08:07:56.051Z,294.77
2023-04-29T08:10:27.230Z,319.80
2023-04-29T08:12:54.882Z,328.40
2023-04-29T08:15:23.918Z,342.73
2023-04-29T08:17:53.087Z,335.23
2023-04-29T08:20:20.939Z,329.85
2023-04-29T08:22:48.539Z,371.13
2023-04-29T08:25:16.708Z,357.73
2023-04-29T08:27:45.848Z,345.98
2023-04-29T08:30:13.967Z,345.33
2023-04-29T08:32:41.632Z,346.17
2023-04-29T08:35:11.329Z,358.50
2023-04-29T08:37:38.917Z,335.63
2023-04-29T08:40:08.987Z,339.33
2023-04-29T08:42:38.540Z,342.52
2023-04-29T08:45:07.331Z,342.48
2023-04-29T08:47:35.253Z,324.92
2023-04-29T08:50:05.282Z,346.98
2023-04-29T08:52:35.892Z,351.33
2023-04-29T08:55:05.409Z,345.00
2023-04-29T08:57:39.556Z,341.92
2023-04-29T09:00:10.122Z,341.95
2023-04-29T09:02:42.282Z,324.98
2023-04-29T09:05:11.894Z,336.08
2023-04-29T09:07:41.995Z,335.60
2023-04-29T09:10:10.850Z,344.77
2023-04-29T09:12:38.533Z,311.13
2023-04-29T09:15:07.161Z,322.85
2023-04-29T09:17:46.022Z,314.00
2023-04-29T09:20:28.463Z,309.95
2023-04-29T09:22:58.794Z,305.00
2023-04-29T09:25:26.426Z,308.38
2023-04-29T09:27:54.735Z,293.20
2023-04-29T09:30:22.629Z,307.15
2023-04-29T09:33:08.342Z,310.70
2023-04-29T09:35:36.533Z,298.42
2023-04-29T09:38:14.215Z,310.25
2023-04-29T09:40:58.088Z,301.48
2023-04-29T09:43:27.126Z,303.42
2023-04-29T09:45:55.018Z,314.17
2023-04-29T09:48:22.906Z,330.42
2023-04-29T09:51:01.816Z,317.17
2023-04-29T09:53:32.384Z,315.02
2023-04-29T09:56:01.811Z,321.00
2023-04-29T09:58:31.431Z,332.92
2023-04-29T10:01:01.463Z,322.95
2023-04-29T10:03:33.800Z,354.35
2023-04-29T10:06:02.638Z,350.17
2023-04-29T10:08:32.245Z,370.95
2023-04-29T10:11:01.926Z,356.02
2023-04-29T10:13:30.461Z,352.52
2023-04-29T10:16:05.629Z,375.23
2023-04-29T10:18:38.149Z,353.15
2023-04-29T10:21:08.987Z,371.38
2023-04-29T10:23:38.727Z,368.38
2023-04-29T10:26:08.164Z,360.17
2023-04-29T10:28:38.353Z,362.30
2023-04-29T10:31:08.160Z,342.52
2023-04-29T10:33:37.415Z,358.40
2023-04-29T10:36:05.870Z,347.35
2023-04-29T10:38:41.651Z,352.70
2023-04-29T10:41:21.935Z,352.55
2023-04-29T10:43:49.906Z,338.30
2023-04-29T10:46:22.807Z,352.13
2023-04-29T10:48:57.048Z,350.67
2023-04-29T10:51:33.544Z,362.00
2023-04-29T10:54:04.511Z,353.67
2023-04-29T10:56:40.212Z,346.98
2023-04-29T10:59:11.691Z,352.17
2023-04-29T11:01:57.220Z,370.58
2023-04-29T11:04:24.841Z,348.65
2023-04-29T11:06:54.186Z,345.73
2023-04-29T11:09:27.602Z,345.58
2023-04-29T11:12:04.067Z,355.88
2023-04-29T11:14:36.336Z,590.28
2023-04-29T11:17:05.233Z,400.60
2023-04-29T11:19:34.617Z,371.67
2023-04-29T11:22:11.701Z,373.95
2023-04-29T11:24:52.379Z,356.90
2023-04-29T11:27:25.036Z,363.60
2023-04-29T11:29:55.752Z,356.02
2023-04-29T11:32:23.966Z,336.65
2023-04-29T11:34:51.821Z,371.75
2023-04-29T11:37:27.850Z,363.15
2023-04-29T11:40:02.096Z,355.80
2023-04-29T11:42:29.861Z,355.70
2023-04-29T11:44:59.303Z,334.95
2023-04-29T11:47:29.582Z,339.98
2023-04-29T11:50:04.455Z,354.83
2023-04-29T11:52:32.166Z,340.15
2023-04-29T11:55:01.928Z,360.58
2023-04-29T11:57:30.264Z,370.48
2023-04-29T11:59:58.649Z,370.67
2023-04-29T12:02:30.713Z,362.98
2023-04-29T12:04:59.078Z,356.08
2023-04-29T12:07:27.601Z,355.50
2023-04-29T12:09:56.353Z,337.77
2023-04-29T12:12:27.518Z,362.13
2023-04-29T12:14:56.011Z,354.60
2023-04-29T12:17:25.200Z,388.77
2023-04-29T12:19:53.165Z,339.27
2023-04-29T12:22:21.077Z,318.00
2023-04-29T12:24:50.695Z,326.10
2023-04-29T12:27:18.712Z,309.52
2023-04-29T12:29:47.808Z,326.00
2023-04-29T12:32:18.728Z,320.70
2023-04-29T12:34:47.181Z,332.02
2023-04-29T12:37:16.353Z,311.50
2023-04-29T12:39:43.945Z,288.80
2023-04-29T12:42:17.125Z,300.55
2023-04-29T12:44:48.147Z,290.42
2023-04-29T12:47:17.464Z,294.10
2023-04-29T12:49:46.589Z,296.45
2023-04-29T12:52:15.784Z,311.23
2023-04-29T12:54:44.374Z,321.40
2023-04-29T12:57:12.819Z,329.23
2023-04-29T12:59:40.959Z,330.98
2023-04-29T13:02:10.274Z,336.10
2023-04-29T13:04:39.109Z,337.05
2023-04-29T13:07:07.638Z,337.77
2023-04-29T13:09:37.840Z,317.95
2023-04-29T13:12:09.200Z,326.58
2023-04-29T13:14:37.101Z,321.70
2023-04-29T13:17:04.990Z,271.85
2023-04-29T13:19:48.197Z,294.60
2023-04-29T13:22:17.734Z,290.77
2023-04-29T13:24:45.877Z,310.73
2023-04-29T13:27:13.507Z,303.10
2023-04-29T13:29:41.414Z,301.58
2023-04-29T13:32:09.277Z,312.00
2023-04-29T13:34:38.486Z,307.77
2023-04-29T13:37:06.174Z,295.20
2023-04-29T13:39:37.886Z,281.77
2023-04-29T13:42:06.390Z,292.42
2023-04-29T13:44:47.186Z,314.58
2023-04-29T13:47:25.166Z,273.42
2023-04-29T13:53:10.763Z,299.48
2023-04-29T14:00:38.206Z,288.38
2023-04-29T14:03:03.757Z,264.67
2023-04-29T14:05:33.284Z,297.80
2023-04-29T14:08:01.400Z,288.38
2023-04-29T14:10:29.453Z,318.00
2023-04-29T14:12:57.057Z,286.50
2023-04-29T14:15:24.660Z,293.52
2023-04-29T14:17:53.254Z,292.85
2023-04-29T14:20:21.183Z,287.30
2023-04-29T14:22:50.109Z,295.45
2023-04-29T14:25:17.795Z,276.98
2023-04-29T14:27:45.456Z,256.13
2023-04-29T14:30:13.554Z,286.52
2023-04-29T14:32:41.208Z,266.50
2023-04-29T14:35:10.122Z,262.13
2023-04-29T14:37:37.738Z,269.88
2023-04-29T14:40:09.278Z,291.92
2023-04-29T14:42:37.062Z,272.75
2023-04-29T14:45:05.405Z,296.35
2023-04-29T14:47:33.085Z,280.10
2023-04-29T14:50:00.707Z,263.10
2023-04-29T14:52:28.351Z,285.80
2023-04-29T14:54:56.385Z,272.30
2023-04-29T14:57:25.564Z,288.48
2023-04-29T14:59:53.153Z,294.23
2023-04-29T15:02:20.808Z,286.70
2023-04-29T15:04:49.006Z,304.45
2023-04-29T15:07:17.173Z,300.27
2023-04-29T15:09:45.773Z,286.10
2023-04-29T15:12:14.371Z,310.38
2023-04-29T15:14:43.321Z,312.00
2023-04-29T15:17:10.926Z,287.65
2023-04-29T15:19:38.560Z,286.52
2023-04-29T15:22:06.148Z,278.00
2023-04-29T15:24:33.909Z,296.73
2023-04-29T15:27:02.364Z,292.75
2023-04-29T15:29:32.568Z,293.45
2023-04-29T15:32:01.690Z,307.17
2023-04-29T15:34:29.584Z,279.58
2023-04-29T15:36:57.213Z,292.17
2023-04-29T15:39:24.995Z,309.80
2023-04-29T15:41:53.829Z,319.25
2023-04-29T15:44:21.457Z,301.92
2023-04-29T15:46:49.240Z,300.92
2023-04-29T15:49:18.695Z,319.83
2023-04-29T15:51:46.272Z,309.13
2023-04-29T15:54:13.876Z,308.92
2023-04-29T15:56:41.663Z,283.98
2023-04-29T15:59:09.679Z,298.73
2023-04-29T16:01:37.305Z,315.98
2023-04-29T16:04:05.600Z,300.13
2023-04-29T16:06:34.642Z,295.13
2023-04-29T16:09:03.809Z,304.35
2023-04-29T16:11:31.462Z,304.00
2023-04-29T16:13:59.259Z,298.67
2023-04-29T16:16:27.050Z,303.67
2023-04-29T16:18:54.684Z,320.02
2023-04-29T16:21:22.324Z,300.02
2023-04-29T16:23:52.103Z,313.13
2023-04-29T16:26:19.880Z,290.13
2023-04-29T16:28:47.468Z,326.67
2023-04-29T16:31:15.518Z,315.58
2023-04-29T16:33:43.154Z,324.67
2023-04-29T16:36:10.794Z,321.00
2023-04-29T16:38:38.644Z,315.92
2023-04-29T16:41:07.708Z,309.98
2023-04-29T16:43:35.375Z,316.90
2023-04-29T16:46:03.142Z,332.42
2023-04-29T16:48:31.423Z,342.58
2023-04-29T16:50:59.087Z,334.88
2023-04-29T16:53:26.749Z,313.90
2023-04-29T16:55:54.550Z,328.48
2023-04-29T16:58:23.764Z,314.73
2023-04-29T17:00:52.034Z,318.63
2023-04-29T17:03:19.778Z,311.15
2023-04-29T17:05:48.583Z,311.92
2023-04-29T17:08:16.818Z,336.45
2023-04-29T17:10:45.108Z,320.52
2023-04-29T17:13:12.704Z,337.70
2023-04-29T17:15:41.834Z,340.70
2023-04-29T17:18:09.551Z,348.40
2023-04-29T17:20:37.228Z,351.10
2023-04-29T17:23:04.854Z,334.80
2023-04-29T17:25:32.789Z,356.35
2023-04-29T17:28:00.935Z,355.77
2023-04-29T17:30:28.736Z,352.67
2023-04-29T17:32:57.724Z,354.63
2023-04-29T17:35:25.343Z,354.67
2023-04-29T17:37:53.041Z,342.67
2023-04-29T17:40:20.878Z,363.50
2023-04-29T17:42:48.488Z,362.80
2023-04-29T17:45:16.520Z,374.23
2023-04-29T17:47:44.208Z,367.48
2023-04-29T17:50:13.381Z,360.60
2023-04-29T17:52:41.103Z,372.40
2023-04-29T17:55:09.592Z,375.00
2023-04-29T17:57:37.976Z,370.85
2023-04-29T18:00:07.297Z,374.60
2023-04-29T18:02:35.121Z,377.52
2023-04-29T18:05:03.066Z,376.80
2023-04-29T18:07:32.175Z,362.92
2023-04-29T18:09:59.800Z,379.65
2023-04-29T18:12:27.505Z,371.73
2023-04-29T18:14:55.155Z,370.38
2023-04-29T18:17:22.776Z,357.30
2023-04-29T18:19:50.518Z,368.23
2023-04-29T18:22:18.388Z,342.85
2023-04-29T18:24:48.312Z,356.92
2023-04-29T18:27:16.375Z,350.40
2023-04-29T18:29:45.779Z,373.83
2023-04-29T18:32:13.413Z,362.38
2023-04-29T18:34:41.078Z,377.92
2023-04-29T18:37:08.912Z,339.02
2023-04-29T18:39:36.779Z,357.30
2023-04-29T18:42:05.737Z,351.05
2023-04-29T18:44:34.130Z,357.27
2023-04-29T18:47:02.031Z,350.33
2023-04-29T18:49:30.206Z,327.23
2023-04-29T18:51:57.809Z,354.17
2023-04-29T18:54:25.588Z,350.33
2023-04-29T18:56:53.235Z,354.50
2023-04-29T18:59:22.260Z,339.15
2023-04-29T19:01:49.904Z,349.83
2023-04-29T19:04:17.852Z,356.65
2023-04-29T19:06:45.600Z,330.50
2023-04-29T19:09:13.606Z,333.10
2023-04-29T19:11:41.547Z,363.73
2023-04-29T19:14:09.445Z,347.10
2023-04-29T19:16:38.473Z,366.02
2023-04-29T19:19:06.709Z,345.27
2023-04-29T19:21:34.621Z,343.20
2023-04-29T19:24:02.391Z,352.50
2023-04-29T19:26:33.002Z,326.48
2023-04-29T19:29:02.791Z,356.40
2023-04-29T19:31:30.549Z,356.25
2023-04-29T19:33:59.596Z,334.50
2023-04-29T19:36:27.411Z,325.45
2023-04-29T19:38:55.109Z,335.67
2023-04-29T19:41:22.744Z,327.90
2023-04-29T19:43:50.611Z,352.42
2023-04-29T19:46:18.285Z,329.02
2023-04-29T19:48:45.972Z,330.30
2023-04-29T19:51:14.874Z,334.00
2023-04-29T19:53:42.473Z,360.10
2023-04-29T19:56:10.222Z,334.02
2023-04-29T19:58:37.793Z,346.58
2023-04-29T20:01:05.616Z,346.27
2023-04-29T20:03:35.904Z,352.70
2023-04-29T20:06:04.395Z,352.02
2023-04-29T20:08:33.426Z,355.95
2023-04-29T20:11:02.527Z,322.05
2023-04-29T20:13:30.247Z,342.65
2023-04-29T20:15:57.951Z,327.23
2023-04-29T20:18:26.175Z,325.17
2023-04-29T20:20:53.825Z,337.60
2023-04-29T20:23:21.462Z,328.25
2023-04-29T20:25:50.757Z,337.95
2023-04-29T20:28:18.403Z,311.42
2023-04-29T20:30:46.179Z,308.73
2023-04-29T20:33:13.938Z,335.73
2023-04-29T20:35:41.555Z,334.23
2023-04-29T20:38:09.181Z,334.00
2023-04-29T20:40:36.870Z,325.33
2023-04-29T20:43:05.807Z,308.83
2023-04-29T20:45:34.036Z,321.88
2023-04-29T20:48:01.701Z,317.55
2023-04-29T20:50:29.582Z,331.77
2023-04-29T20:52:57.544Z,341.65
2023-04-29T20:55:25.275Z,314.33
2023-04-29T20:57:52.868Z,321.10
2023-04-29T21:00:21.811Z,322.85
2023-04-29T21:02:49.451Z,327.45
2023-04-29T21:05:17.667Z,328.42
2023-04-29T21:07:45.430Z,338.40
2023-04-29T21:10:13.550Z,336.98
2023-04-29T21:12:41.272Z,317.35
2023-04-29T21:15:10.016Z,317.42
2023-04-29T21:17:39.005Z,334.10
2023-04-29T21:20:08.660Z,328.65
2023-04-29T21:22:36.244Z,308.23
2023-04-29T21:25:05.218Z,328.77
2023-04-29T21:27:32.873Z,319.08
2023-04-29T21:30:00.704Z,337.55
2023-04-29T21:32:29.474Z,319.23
2023-04-29T21:34:58.592Z,330.13
2023-04-29T21:37:26.320Z,318.60
2023-04-29T21:39:57.304Z,333.42
2023-04-29T21:42:26.322Z,311.60
2023-04-29T21:44:54.352Z,329.10
2023-04-29T21:47:21.963Z,319.65
2023-04-29T21:49:50.367Z,324.42
2023-04-29T21:52:20.050Z,322.63
2023-04-29T21:54:47.650Z,319.48
2023-04-29T21:57:15.297Z,332.98
2023-04-29T21:59:42.931Z,312.05
2023-04-29T22:02:21.872Z,337.70
2023-04-29T22:04:51.284Z,318.92
2023-04-29T22:07:21.861Z,319.88
2023-04-29T22:09:50.456Z,321.77
2023-04-29T22:12:18.781Z,313.52
2023-04-29T22:14:46.819Z,308.20
2023-04-29T22:17:14.846Z,329.08
2023-04-29T22:19:42.875Z,333.58
2023-04-29T22:22:11.117Z,322.02
2023-04-29T22:24:40.067Z,323.02
2023-04-29T22:27:07.656Z,318.95
2023-04-29T22:29:35.448Z,318.20
2023-04-29T22:32:03.132Z,317.88
2023-04-29T22:34:30.785Z,306.75
2023-04-29T22:36:58.448Z,310.50
2023-04-29T22:39:26.074Z,315.33
2023-04-29T22:41:55.022Z,299.15
2023-04-29T22:44:22.630Z,330.05
2023-04-29T22:46:50.239Z,317.80
2023-04-29T22:49:18.329Z,304.58
2023-04-29T22:51:45.961Z,321.75
2023-04-29T22:54:14.282Z,292.38
2023-04-29T22:56:41.884Z,301.98
2023-04-29T22:59:10.877Z,303.73
2023-04-29T23:01:38.647Z,314.27
2023-04-29T23:04:06.299Z,316.65
2023-04-29T23:06:34.865Z,308.98
2023-04-29T23:09:02.569Z,285.20
2023-04-29T23:11:31.893Z,312.10
2023-04-29T23:13:59.541Z,305.70
2023-04-29T23:16:28.551Z,286.83
2023-04-29T23:18:56.163Z,300.95
2023-04-29T23:21:23.814Z,325.95
2023-04-29T23:23:51.539Z,297.42
2023-04-29T23:26:19.125Z,312.65
2023-04-29T23:28:46.827Z,318.63
2023-04-29T23:31:14.452Z,305.20
2023-04-29T23:33:43.470Z,293.00
2023-04-29T23:36:11.748Z,304.67
2023-04-29T23:38:39.449Z,314.27
2023-04-29T23:41:07.091Z,309.90
2023-04-29T23:43:34.728Z,295.02
2023-04-29T23:46:02.484Z,309.30
2023-04-29T23:48:30.233Z,309.25
2023-04-29T23:50:59.150Z,316.33
2023-04-29T23:53:26.861Z,300.92
2023-04-29T23:55:54.423Z,300.70
2023-04-29T23:58:22.048Z,304.17
